WetterOnline ( http://www.wetteronline.de )

Wetter aktuell Garmisch-Partenkirchen

Aktuelles Wetter: Garmisch-Partenkirchen (719m)

6-stündlich | Neueste Meldungen
Ortszeit Temperatur Wetter
Do, 20.09. 14:00 26.2° C fast wolkenlos
Do, 20.09. 8:00 9.5° C wolkenlos
Do, 20.09. 2:00 10.9° C wolkenlos
Mi, 19.09. 20:00 16.0° C wolkenlos
Mi, 19.09. 14:00 24.1° C leicht bewölkt
Mi, 19.09. 8:00 11.4° C bewölkt
Mi, 19.09. 2:00 10.7° C leicht bewölkt
Di, 18.09. 20:00 14.5° C leichter Regen
Ortszeit Temperatur Wetter
Do, 20.09. 14:00 26.2° C fast wolkenlos
Do, 20.09. 13:50 26.2° C fast wolkenlos
Do, 20.09. 13:40 25.8° C wolkenlos
Do, 20.09. 13:30 25.4° C wolkenlos
Do, 20.09. 13:20 25.4° C wolkenlos
Do, 20.09. 13:10 25.5° C wolkenlos
Do, 20.09. 13:00 24.9° C fast wolkenlos
Do, 20.09. 12:30 24.0° C fast wolkenlos
Do, 20.09. 12:00 22.5° C wolkig
Do, 20.09. 11:30 21.9° C leicht bewölkt
Do, 20.09. 11:00 21.4° C wolkig
Ortszeit Relative Feuchte Sichtweite
Do, 20.09. 14:00 31% 45 km
Do, 20.09. 8:00 99% 24 km
Do, 20.09. 2:00 98% 20 km
Mi, 19.09. 20:00 89% 55 km
Mi, 19.09. 14:00 47% 65 km
Mi, 19.09. 8:00 100% 25 km
Mi, 19.09. 2:00 99% 8 km
Di, 18.09. 20:00 97% 21 km
Ortszeit Relative Feuchte Sichtweite
Do, 20.09. 14:00 31% 45 km
Do, 20.09. 13:50 31% -
Do, 20.09. 13:40 34% -
Do, 20.09. 13:30 40% 60 km
Do, 20.09. 13:20 40% -
Do, 20.09. 13:10 37% -
Do, 20.09. 13:00 42% 65 km
Do, 20.09. 12:30 44% 60 km
Do, 20.09. 12:00 46% 55 km
Do, 20.09. 11:30 47% >70 km
Do, 20.09. 11:00 50% 65 km
Ortszeit Niederschlagsmenge Niederschlagsart
Do, 20.09. 14:00 0.0 l/m2 in 6 Std. -
Do, 20.09. 8:00 0.0 l/m2 in 12 Std. -
Do, 20.09. 2:00 0.0 l/m2 in 6 Std. -
Mi, 19.09. 20:00 0.0 l/m2 in 12 Std. -
Mi, 19.09. 14:00 0.0 l/m2 in 6 Std. -
Mi, 19.09. 8:00 0.1 l/m2 in 12 Std. -
Mi, 19.09. 2:00 0.1 l/m2 in 6 Std. Regen
Di, 18.09. 20:00 20 l/m2 in 12 Std. Regenschauer
Ortszeit Niederschlagsmenge Niederschlagsart
Do, 20.09. 14:00 0.0 l/m2 in 1 Std. -
Do, 20.09. 13:50 keine Meldung -
Do, 20.09. 13:40 keine Meldung -
Do, 20.09. 13:30 0.0 l/m2 in 1 Std. -
Do, 20.09. 13:20 keine Meldung -
Do, 20.09. 13:10 keine Meldung -
Do, 20.09. 13:00 0.0 l/m2 in 1 Std. -
Do, 20.09. 12:30 0.0 l/m2 in 1 Std. -
Do, 20.09. 12:00 0.0 l/m2 in 1 Std. -
Do, 20.09. 11:30 0.0 l/m2 in 1 Std. -
Do, 20.09. 11:00 0.0 l/m2 in 1 Std. -
Ortszeit Stärke Spitze Richtung
km/h Bft. km/h Grad Sektor
Do, 20.09. 14:00 4 1 11 170° S
Do, 20.09. 8:00 2 1 7 260° W
Do, 20.09. 2:00 2 1 9 260° W
Mi, 19.09. 20:00 4 1 22 230° SW
Mi, 19.09. 14:00 7 2 11 120° SO
Mi, 19.09. 8:00 4 1 11 240° SW
Mi, 19.09. 2:00 4 1 11 260° W
Di, 18.09. 20:00 7 2 29 190° S
Ortszeit Stärke Spitze Richtung
km/h Bft. km/h Grad Sektor
Do, 20.09. 14:00 4 1 7 170° S
Do, 20.09. 13:50 4 1 - 170° S
Do, 20.09. 13:40 4 1 - 190° S
Do, 20.09. 13:30 4 1 7 180° S
Do, 20.09. 13:20 4 1 - 180° S
Do, 20.09. 13:10 4 1 - 160° S
Do, 20.09. 13:00 4 1 11 160° S
Do, 20.09. 12:30 4 1 11 150° SO
Do, 20.09. 12:00 4 1 11 150° SO
Do, 20.09. 11:30 4 1 11 170° S
Do, 20.09. 11:00 4 1 7 160° S
Ortszeit Untergrenze Bedeckung Gattung
total tief tief mittel hoch
Do, 20.09. 14:00 3300 m 1/8 1/8 - - -
Do, 20.09. 8:00 - 0/8 0/8 - - -
Do, 20.09. 2:00 - 0/8 0/8 - - -
Mi, 19.09. 20:00 - 0/8 0/8 - - -
Mi, 19.09. 14:00 3000 m 2/8 5/8 - - -
Mi, 19.09. 8:00 30 m 7/8 7/8 - - -
Mi, 19.09. 2:00 <30 m 2/8 1/8 - - -
Di, 18.09. 20:00 2700 m 7/8 7/8 - - -
Ortszeit Bedeckungsgrad in Achtel und Wolkenuntergrenze
Do, 20.09. 14:00 1(3300m)
Do, 20.09. 13:50 1(3300m)
Do, 20.09. 13:40 keine Wolken
Do, 20.09. 13:30 keine Wolken
Do, 20.09. 13:20 keine Wolken
Do, 20.09. 13:10 keine Wolken
Do, 20.09. 13:00 1(3300m)
Do, 20.09. 12:30 1(3300m)
Do, 20.09. 12:00 3(3300m)
Do, 20.09. 11:30 3(3300m)
Do, 20.09. 11:00 9 9 9
Ortszeit Luftdruck NN (hPa) Tendenz (hPa in 3 Std.)
Do, 20.09. 14:00 1017 - 2,2
Do, 20.09. 8:00 1025 + 0,3
Do, 20.09. 2:00 1024 - 0,3
Mi, 19.09. 20:00 1022 + 0,9
Mi, 19.09. 14:00 1019 - 1,0
Mi, 19.09. 8:00 1023 + 0,8
Mi, 19.09. 2:00 1023 + 0,3
Di, 18.09. 20:00 1021 + 2,3
Ortszeit Luftdruck NN (hPa) Tendenz (hPa in 3 Std.)
Do, 20.09. 14:00 1017 - 2,2
Do, 20.09. 13:50 1017 keine Meldung
Do, 20.09. 13:40 1017 keine Meldung
Do, 20.09. 13:30 1017 - 2,2
Do, 20.09. 13:20 1017 keine Meldung
Do, 20.09. 13:10 1018 keine Meldung
Do, 20.09. 13:00 1018 - 1,8
Do, 20.09. 12:30 1019 - 1,6
Do, 20.09. 12:00 1020 - 1,1
Do, 20.09. 11:30 1020 - 0,9
Do, 20.09. 11:00 1021 - 0,4
Ortszeit Schneehöhe (cm)
Do, 20.09. 14:00 -
Do, 20.09. 8:00 -
Do, 20.09. 2:00 -
Mi, 19.09. 20:00 -
Mi, 19.09. 14:00 -
Mi, 19.09. 8:00 -
Mi, 19.09. 2:00 -
Di, 18.09. 20:00 -
Ortszeit Schneehöhe (cm)
Do, 20.09. 14:00 -
Do, 20.09. 13:50 -
Do, 20.09. 13:40 -
Do, 20.09. 13:30 -
Do, 20.09. 13:20 -
Do, 20.09. 13:10 -
Do, 20.09. 13:00 -
Do, 20.09. 12:30 -
Do, 20.09. 12:00 -
Do, 20.09. 11:30 -
Do, 20.09. 11:00 -
Link zu dieser Seite / Seite empfehlen

Das Wetter in ...